Pagrindinis puslapis
METAR-TAF:

METAR-TAF

Oro uostai :

Nasau, Bahamos

platuma: 25-03N, ilguma: 077-28W, Aukštis: 3 m

Dabartinis oras

Ataskaita buvo paskelbta 48 minutes, ne 09:00 UTC
Vėjas 5 kt iš Vakarų
Temperatūra 27°C
Drėgmė 89%
Slėgis 1011 hPa
Matomumas 10 km arba daugiau
Išsisklaidę debesys ne aukštis 2000 ft

METAR: MYNN 270900Z 26005KT 9999 SCT020 27/25 A2986

Laikas: 05:48 (09:48 UTC)

Prognozė

Ataskaita buvo paskelbta 6 valandos ir 18 minutes, ne 03:30 UTC
Prognozė galioja nuo 27 metu 06 UTC su 28 metu 06 UTC
Vėjas 4 kt iš Vakarų
Matomumas 10 km arba daugiau
Mažai debesys ne aukštis 2500 ft
Tapsmas
nuo 27 metu 16 UTC su 27 metu 18 UTC
Vėjas 10 kt iš Vakarų/Šiaurės Vakarų
Išsisklaidę debesys ne aukštis 2200 ft
Tapsmas
nuo 28 metu 00 UTC su 28 metu 02 UTC
Vėjas 2 kt nuo kintamojo kryptimis
Matomumas 10 km arba daugiau
nėra debesų žemiau 1500 m ir nėra kamuolinių lietaus debesų

TAF: MYNN 270330Z 2706/2806 26004KT 9999 FEW025 BECMG 2716/2718 29010KT SCT022 BECMG 2800/2802 VRB02KT CAVOK

Orai ataskaitas ir orų prognozės (METAR, TAF).

turimą stotys yra geltonos ir raudonos taškus žemėlapyje.

Perkelti pele per norėdami pamatyti stoties vardą.

Tada spustelėkite, norėdami matyti oro stebėjimo ir prognozės.

Norėdami pakeisti žemėlapį: spustelėkite ant žalios mygtukų su juodo kryžiaus žemyn,; žalią mygtuką su brūkšneliu, jei norite nutolinti; arba žalių rodyklių gretimoms žemėlapius.


METAR-TAF: